Time;durP1;ratioP1;P1;durP2;ratioP2;P2;SDS_P1;SDS_P2;PMS_P1;PMS_P2;Temp;Humidity;BMP_temperature;BMP_pressure;BME280_temperature;BME280_humidity;BME280_pressure;Samples;Min_cycle;Max_cycle;Signal;HPM_P1;HPM_P2
2023/03/17 00:01:16;;;;;;;7.40;1.90;;;11.30;87.60;;;;;;4991768;28;20028;-73
2023/03/17 00:03:44;;;;;;;7.82;2.88;;;11.30;86.80;;;;;;4991078;28;20034;-72
2023/03/17 00:06:23;;;;;;;9.23;2.20;;;11.20;88.30;;;;;;4991134;28;20034;-71
2023/03/17 00:08:49;;;;;;;14.75;2.40;;;11.10;88.00;;;;;;4990994;28;20354;-73
2023/03/17 00:11:16;;;;;;;4.22;1.58;;;11.20;87.30;;;;;;4990439;28;20030;-68
2023/03/17 00:13:43;;;;;;;6.18;1.80;;;11.20;87.70;;;;;;5004506;28;20034;-69
2023/03/17 00:16:23;;;;;;;9.90;2.03;;;11.20;87.30;;;;;;5009717;28;20053;-70
2023/03/17 00:18:50;;;;;;;11.45;2.30;;;11.10;88.10;;;;;;4995702;28;20084;-68
2023/03/17 00:21:22;;;;;;;8.95;1.80;;;11.10;88.00;;;;;;4990374;28;20026;-69
2023/03/17 00:23:50;;;;;;;10.68;1.90;;;11.10;88.30;;;;;;5005374;28;20445;-68
2023/03/17 00:26:16;;;;;;;10.38;2.15;;;11.10;88.50;;;;;;5008355;28;20022;-69
2023/03/17 00:28:42;;;;;;;8.23;1.42;;;11.00;89.00;;;;;;4998528;28;20073;-68
2023/03/17 00:31:26;;;;;;;7.80;1.83;;;11.10;88.00;;;;;;4990754;28;20398;-68
2023/03/17 00:33:54;;;;;;;7.00;1.52;;;11.10;88.10;;;;;;4991081;28;20739;-67
2023/03/17 00:36:22;;;;;;;5.13;1.60;;;11.10;87.80;;;;;;4990979;28;20084;-68
2023/03/17 00:38:49;;;;;;;8.00;1.75;;;11.10;87.20;;;;;;4989475;28;20077;-67
2023/03/17 00:41:14;;;;;;;8.10;1.60;;;11.00;87.80;;;;;;4989120;28;20018;-68
2023/03/17 00:43:41;;;;;;;7.38;1.98;;;11.00;87.00;;;;;;4989054;28;20391;-70
2023/03/17 00:46:36;;;;;;;6.72;1.83;;;11.00;87.00;;;;;;4988878;28;20045;-68
2023/03/17 00:49:23;;;;;;;4.00;1.40;;;10.90;87.50;;;;;;4988789;28;20414;-71
2023/03/17 00:51:50;;;;;;;9.18;1.73;;;10.90;87.00;;;;;;4991946;28;20038;-68
2023/03/17 00:54:18;;;;;;;9.23;2.13;;;10.90;87.50;;;;;;5009792;28;20034;-68
2023/03/17 00:56:45;;;;;;;6.40;1.80;;;10.80;86.70;;;;;;5003388;28;20038;-70
2023/03/17 00:59:14;;;;;;;6.22;1.80;;;10.80;86.60;;;;;;4989815;28;20042;-69
2023/03/17 01:01:40;;;;;;;5.97;1.55;;;10.90;85.40;;;;;;4990191;28;20052;-69
2023/03/17 01:04:09;;;;;;;6.50;1.70;;;10.90;85.40;;;;;;4989253;28;20058;-67
2023/03/17 01:06:35;;;;;;;9.13;2.05;;;11.00;83.40;;;;;;4989615;28;20316;-69
2023/03/17 01:09:02;;;;;;;8.45;1.88;;;10.90;85.20;;;;;;4989923;28;20030;-67
2023/03/17 01:11:28;;;;;;;7.07;1.55;;;10.80;85.60;;;;;;4988274;28;20033;-67
2023/03/17 01:13:54;;;;;;;12.45;1.70;;;10.80;85.50;;;;;;4989875;28;20038;-68
2023/03/17 01:16:20;;;;;;;9.07;1.63;;;10.80;84.30;;;;;;4989866;28;20030;-67
2023/03/17 01:18:46;;;;;;;7.15;1.85;;;10.70;83.80;;;;;;4989621;28;20038;-68
2023/03/17 01:21:11;;;;;;;10.93;1.80;;;10.80;84.20;;;;;;4989264;28;20038;-67
2023/03/17 01:23:37;;;;;;;8.30;1.70;;;10.90;82.00;;;;;;4989448;28;20034;-71
2023/03/17 01:26:04;;;;;;;6.10;1.75;;;10.90;82.20;;;;;;4989578;28;20054;-72
2023/03/17 01:28:29;;;;;;;;;;;10.80;82.90;;;;;;4990110;28;20085;-69
2023/03/17 01:30:55;;;;;;;7.32;1.75;;;10.80;83.80;;;;;;4989234;28;19917;-68
2023/03/17 01:33:21;;;;;;;7.93;2.53;;;10.90;81.80;;;;;;4989553;28;20060;-74
2023/03/17 01:35:47;;;;;;;9.98;2.03;;;10.90;82.50;;;;;;4989205;28;20065;-70
2023/03/17 01:38:13;;;;;;;3.93;2.00;;;11.00;80.10;;;;;;4983379;28;20131;-71
2023/03/17 01:40:48;;;;;;;8.70;2.78;;;11.00;80.30;;;;;;4979060;28;20030;-67
2023/03/17 01:43:29;;;;;;;5.53;1.55;;;11.10;79.20;;;;;;4988985;28;20034;-68
2023/03/17 01:46:16;;;;;;;7.40;1.65;;;11.00;79.10;;;;;;4989017;28;20026;-69
2023/03/17 01:49:02;;;;;;;7.13;1.48;;;11.00;78.90;;;;;;4988814;28;20157;-73
2023/03/17 01:51:34;;;;;;;8.93;1.60;;;11.10;77.20;;;;;;4988340;28;20034;-73
2023/03/17 01:54:04;;;;;;;5.32;1.40;;;11.00;77.60;;;;;;4989103;28;20030;-69
2023/03/17 01:56:30;;;;;;;7.65;1.42;;;11.00;77.80;;;;;;4988761;28;20033;-70
2023/03/17 01:59:00;;;;;;;2.88;1.50;;;11.00;77.50;;;;;;4989314;28;20391;-70
2023/03/17 02:01:32;;;;;;;7.22;1.90;;;11.10;77.10;;;;;;4989726;28;20080;-73
2023/03/17 02:03:58;;;;;;;8.05;1.70;;;11.00;76.90;;;;;;4989093;28;20483;-73
2023/03/17 02:06:24;;;;;;;6.60;1.90;;;10.90;77.40;;;;;;4989344;28;20034;-73
2023/03/17 02:08:51;;;;;;;5.18;1.30;;;11.00;76.00;;;;;;4989046;28;20510;-70
2023/03/17 02:11:17;;;;;;;5.20;1.50;;;11.00;77.20;;;;;;4989277;28;20473;-71
2023/03/17 02:13:43;;;;;;;7.35;1.70;;;10.90;76.90;;;;;;4987960;28;20054;-66
2023/03/17 02:16:16;;;;;;;8.02;2.25;;;10.90;77.10;;;;;;4987965;28;20041;-73
2023/03/17 02:18:42;;;;;;;7.35;1.70;;;11.00;76.10;;;;;;4988530;28;20096;-74
2023/03/17 02:21:27;;;;;;;5.13;1.75;;;10.90;77.00;;;;;;4988705;28;20042;-67
2023/03/17 02:23:53;;;;;;;9.98;2.03;;;10.90;76.50;;;;;;4989116;28;20030;-71
2023/03/17 02:26:22;;;;;;;7.93;1.80;;;10.90;76.30;;;;;;4988531;28;20030;-71
2023/03/17 02:28:48;;;;;;;7.00;1.45;;;10.90;75.90;;;;;;4988494;28;20033;-67
2023/03/17 02:31:14;;;;;;;7.38;1.50;;;10.90;76.50;;;;;;4988029;28;20042;-69
2023/03/17 02:33:41;;;;;;;4.57;1.33;;;10.90;76.00;;;;;;4988349;28;20038;-68
2023/03/17 02:36:08;;;;;;;9.45;2.13;;;10.80;77.70;;;;;;4988073;28;20022;-68
2023/03/17 02:38:34;;;;;;;8.43;1.77;;;10.70;76.60;;;;;;4987715;28;20454;-67
2023/03/17 02:41:00;;;;;;;4.80;1.77;;;10.60;77.40;;;;;;4988243;28;20035;-68
2023/03/17 02:43:26;;;;;;;6.68;2.10;;;10.70;76.70;;;;;;4990095;28;20045;-70
2023/03/17 02:45:51;;;;;;;4.17;1.87;;;10.80;74.90;;;;;;4986599;28;20066;-70
2023/03/17 02:48:18;;;;;;;5.47;1.60;;;10.80;75.30;;;;;;4987637;28;20030;-68
2023/03/17 02:50:43;;;;;;;8.35;2.15;;;10.80;75.50;;;;;;4987496;28;20105;-67
2023/03/17 02:53:09;;;;;;;5.70;1.47;;;10.70;77.20;;;;;;4970508;28;20522;-68
2023/03/17 02:55:35;;;;;;;3.93;1.70;;;10.70;74.90;;;;;;4988015;28;20031;-67
2023/03/17 02:58:01;;;;;;;9.47;1.40;;;10.70;74.80;;;;;;4987531;28;20120;-70
2023/03/17 03:00:27;;;;;;;8.00;1.40;;;10.60;75.50;;;;;;4987518;28;20277;-67
2023/03/17 03:02:53;;;;;;;6.43;1.67;;;10.60;75.30;;;;;;4987692;28;20445;-67
2023/03/17 03:05:19;;;;;;;5.88;1.60;;;10.60;75.80;;;;;;4988060;28;20034;-67
2023/03/17 03:07:45;;;;;;;3.33;1.17;;;10.60;75.00;;;;;;4987604;28;20026;-70
2023/03/17 03:10:11;;;;;;;6.78;1.90;;;10.60;74.60;;;;;;4987996;28;20060;-68
2023/03/17 03:12:36;;;;;;;11.90;1.53;;;10.60;75.40;;;;;;4990523;28;20112;-68
2023/03/17 03:15:02;;;;;;;9.97;1.60;;;10.50;74.20;;;;;;4988038;28;20041;-67
2023/03/17 03:17:28;;;;;;;5.50;1.70;;;10.50;75.20;;;;;;4987642;28;20031;-67
2023/03/17 03:19:54;;;;;;;2.20;1.00;;;10.40;75.40;;;;;;4987217;28;20537;-68
2023/03/17 03:22:19;;;;;;;5.27;1.30;;;10.30;76.00;;;;;;4987386;28;20034;-67
2023/03/17 03:24:45;;;;;;;7.43;1.40;;;10.40;75.60;;;;;;4987948;28;20288;-68
2023/03/17 03:27:11;;;;;;;4.65;1.40;;;10.30;77.50;;;;;;4986819;28;20030;-67
2023/03/17 03:29:37;;;;;;;4.83;1.60;;;10.20;77.30;;;;;;4987535;28;20029;-67
2023/03/17 03:32:03;;;;;;;4.28;1.20;;;10.20;77.60;;;;;;4987201;28;20039;-68
2023/03/17 03:34:29;;;;;;;6.82;1.40;;;10.30;76.40;;;;;;4987943;28;20036;-68
2023/03/17 03:36:55;;;;;;;2.83;1.40;;;10.30;76.20;;;;;;4987861;28;20022;-68
2023/03/17 03:39:20;;;;;;;8.57;1.80;;;10.20;77.10;;;;;;4987351;28;20473;-68
2023/03/17 03:41:46;;;;;;;7.53;1.50;;;10.10;77.40;;;;;;4988136;28;20169;-69
2023/03/17 03:44:11;;;;;;;2.70;1.20;;;10.10;77.50;;;;;;4987605;28;20070;-70
2023/03/17 03:46:37;;;;;;;6.00;1.43;;;10.00;78.40;;;;;;4987343;28;20037;-71
2023/03/17 03:49:02;;;;;;;5.17;1.60;;;10.30;75.50;;;;;;4987303;28;20034;-69
2023/03/17 03:51:28;;;;;;;5.57;1.57;;;10.20;76.40;;;;;;4987857;28;20037;-68
2023/03/17 03:53:54;;;;;;;3.73;1.03;;;10.10;77.80;;;;;;4987666;28;20038;-67
2023/03/17 03:56:19;;;;;;;7.63;2.10;;;10.20;76.80;;;;;;4987941;28;20134;-70
2023/03/17 03:58:45;;;;;;;12.07;1.87;;;10.10;78.10;;;;;;4986763;28;20109;-68
2023/03/17 04:01:11;;;;;;;6.93;1.47;;;9.90;79.70;;;;;;4986771;28;20026;-69
2023/03/17 04:03:37;;;;;;;6.80;1.70;;;10.00;78.10;;;;;;4987019;28;20027;-70
2023/03/17 04:06:03;;;;;;;6.25;1.85;;;9.80;79.00;;;;;;4987018;28;20301;-69
2023/03/17 04:08:30;;;;;;;3.53;1.20;;;9.80;80.30;;;;;;4987348;28;20027;-70
2023/03/17 04:10:56;;;;;;;3.40;1.13;;;9.80;82.60;;;;;;4992607;28;20034;-70
2023/03/17 04:13:22;;;;;;;5.07;1.45;;;9.70;79.10;;;;;;5006320;28;20030;-74
2023/03/17 04:15:48;;;;;;;4.30;1.60;;;9.80;80.30;;;;;;5006512;28;20520;-73
2023/03/17 04:18:14;;;;;;;7.50;1.33;;;9.90;78.70;;;;;;5004835;28;20810;-70
2023/03/17 04:20:39;;;;;;;6.00;1.50;;;9.80;79.30;;;;;;5006459;28;20037;-72
2023/03/17 04:23:05;;;;;;;4.90;1.73;;;9.70;80.60;;;;;;5006347;28;20026;-70
2023/03/17 04:25:31;;;;;;;4.53;1.45;;;9.80;78.10;;;;;;5006765;28;20042;-72
2023/03/17 04:27:57;;;;;;;6.03;1.67;;;10.00;76.70;;;;;;5001124;28;20030;-72
2023/03/17 04:30:23;;;;;;;2.70;1.33;;;9.90;77.90;;;;;;4985543;28;20057;-66
2023/03/17 04:32:48;;;;;;;7.55;1.10;;;9.80;78.00;;;;;;4986665;28;20038;-71
2023/03/17 04:35:21;;;;;;;8.53;1.37;;;9.90;78.20;;;;;;4986554;28;20034;-66
2023/03/17 04:37:47;;;;;;;4.10;1.30;;;10.00;75.90;;;;;;4987141;28;20121;-72
2023/03/17 04:40:14;;;;;;;6.45;1.15;;;10.00;76.90;;;;;;4988625;28;20560;-73
2023/03/17 04:42:40;;;;;;;7.00;1.63;;;10.00;76.90;;;;;;4990134;28;20024;-68
2023/03/17 04:45:13;;;;;;;10.82;1.58;;;10.00;77.70;;;;;;4990390;28;20030;-69
2023/03/17 04:47:39;;;;;;;7.75;1.23;;;9.90;77.30;;;;;;4990807;28;20490;-67
2023/03/17 04:50:06;;;;;;;7.37;1.47;;;9.90;78.10;;;;;;4990752;28;20079;-68
2023/03/17 04:52:32;;;;;;;4.13;1.13;;;9.80;78.90;;;;;;4990708;28;20089;-67
2023/03/17 04:54:58;;;;;;;6.43;1.73;;;9.80;78.60;;;;;;4990752;28;20479;-69
2023/03/17 04:57:24;;;;;;;8.20;1.13;;;9.90;77.30;;;;;;4990356;28;20026;-68
2023/03/17 04:59:49;;;;;;;5.53;1.63;;;9.90;76.10;;;;;;4990108;28;20038;-67
2023/03/17 05:02:17;;;;;;;7.47;1.15;;;9.80;77.20;;;;;;4990272;28;20077;-69
2023/03/17 05:04:44;;;;;;;5.10;1.27;;;9.70;80.30;;;;;;4989904;28;20042;-70
2023/03/17 05:07:10;;;;;;;;;;;9.60;79.90;;;;;;4990203;28;20398;-67
2023/03/17 05:09:35;;;;;;;4.47;1.20;;;9.50;80.00;;;;;;4990292;28;19909;-67
2023/03/17 05:12:01;;;;;;;2.65;1.10;;;9.40;79.80;;;;;;4997417;28;21048;-67
2023/03/17 05:14:27;;;;;;;7.37;2.47;;;9.40;81.90;;;;;;4996810;28;20118;-67
2023/03/17 05:16:52;;;;;;;2.90;1.53;;;9.30;80.30;;;;;;4998033;28;20029;-69
2023/03/17 05:19:18;;;;;;;2.67;1.00;;;9.40;80.10;;;;;;4997746;28;20103;-67
2023/03/17 05:21:44;;;;;;;3.10;1.10;;;9.60;78.00;;;;;;4995580;28;20495;-67
2023/03/17 05:24:10;;;;;;;7.77;1.73;;;9.60;78.00;;;;;;4997359;28;20026;-67
2023/03/17 05:26:36;;;;;;;5.40;1.45;;;9.70;77.60;;;;;;4998173;28;20037;-68
2023/03/17 05:29:02;;;;;;;9.10;1.67;;;9.70;78.40;;;;;;4994192;28;20136;-67
2023/03/17 05:31:28;;;;;;;8.15;1.77;;;9.60;79.40;;;;;;4996392;28;20384;-68
2023/03/17 05:33:54;;;;;;;;;;;9.60;79.20;;;;;;4997300;28;20045;-67
2023/03/17 05:36:20;;;;;;;6.53;1.85;;;9.60;80.00;;;;;;4989654;28;19913;-67
2023/03/17 05:38:45;;;;;;;6.68;1.50;;;9.50;80.20;;;;;;4991404;28;20041;-67
2023/03/17 05:41:11;;;;;;;5.10;1.40;;;9.50;80.50;;;;;;4997684;28;20122;-67
2023/03/17 05:43:37;;;;;;;3.80;1.60;;;9.50;79.60;;;;;;4998447;28;20022;-73
2023/03/17 05:46:04;;;;;;;5.72;1.17;;;9.80;79.40;;;;;;5005407;28;20049;-68
2023/03/17 05:48:30;;;;;;;5.30;1.90;;;9.80;79.00;;;;;;4995461;28;20036;-67
2023/03/17 05:50:56;;;;;;;3.58;1.30;;;9.90;78.20;;;;;;4996099;28;20130;-70
2023/03/17 05:53:22;;;;;;;6.93;1.40;;;9.80;78.40;;;;;;4998471;28;20065;-68
2023/03/17 05:55:48;;;;;;;5.25;1.50;;;9.90;78.10;;;;;;4999125;28;20489;-68
2023/03/17 05:58:15;;;;;;;3.70;1.60;;;9.90;78.10;;;;;;4997862;28;20052;-69
2023/03/17 06:00:41;;;;;;;2.25;1.00;;;9.80;79.20;;;;;;4997905;28;20402;-71
2023/03/17 06:03:07;;;;;;;3.08;1.15;;;9.90;78.20;;;;;;4999193;28;20034;-67
2023/03/17 06:05:33;;;;;;;8.60;1.40;;;9.80;79.40;;;;;;4996628;28;20038;-70
2023/03/17 06:07:59;;;;;;;9.18;1.65;;;9.80;79.10;;;;;;5001262;28;20110;-70
2023/03/17 06:10:26;;;;;;;3.43;1.40;;;9.80;79.10;;;;;;4993564;28;20141;-71
2023/03/17 06:12:52;;;;;;;6.05;1.45;;;9.80;79.80;;;;;;4998619;28;20022;-72
2023/03/17 06:15:18;;;;;;;9.88;1.70;;;9.80;78.80;;;;;;4995980;28;20647;-70
2023/03/17 06:17:44;;;;;;;;;;;9.80;77.60;;;;;;4995449;28;20030;-68
2023/03/17 06:20:10;;;;;;;2.95;1.20;;;9.80;78.30;;;;;;5003634;28;19921;-70
2023/03/17 06:22:36;;;;;;;4.57;1.52;;;9.80;78.70;;;;;;4995078;28;20066;-68
2023/03/17 06:25:03;;;;;;;3.92;1.33;;;9.80;79.30;;;;;;4995587;28;20515;-71
2023/03/17 06:27:28;;;;;;;3.60;1.00;;;9.80;78.90;;;;;;4992432;28;20966;-68
2023/03/17 06:29:54;;;;;;;3.27;1.37;;;9.90;76.90;;;;;;4997505;28;20034;-69
2023/03/17 06:32:20;;;;;;;5.90;1.20;;;9.90;78.20;;;;;;4996565;28;20120;-71
2023/03/17 06:34:45;;;;;;;6.17;1.17;;;10.00;77.20;;;;;;4995017;28;20450;-70
2023/03/17 06:37:11;;;;;;;4.80;1.30;;;10.20;75.30;;;;;;4990620;28;20106;-69
2023/03/17 06:39:37;;;;;;;8.27;1.67;;;10.10;77.90;;;;;;4997569;28;20296;-70
2023/03/17 06:42:03;;;;;;;3.35;1.55;;;10.20;77.10;;;;;;5001771;28;20034;-68
2023/03/17 06:44:29;;;;;;;4.50;1.30;;;10.20;75.70;;;;;;4997313;28;20036;-67
2023/03/17 06:46:55;;;;;;;5.77;1.57;;;10.40;75.10;;;;;;4996461;28;20033;-69
2023/03/17 06:49:21;;;;;;;4.72;1.60;;;10.40;75.80;;;;;;4995144;28;20678;-71
2023/03/17 06:51:47;;;;;;;12.10;2.07;;;10.40;76.50;;;;;;4995412;28;20037;-72
2023/03/17 06:54:12;;;;;;;7.03;0.93;;;10.50;75.60;;;;;;4996800;28;20038;-70
2023/03/17 06:56:38;;;;;;;8.50;1.50;;;10.50;75.90;;;;;;4996031;28;20033;-69
2023/03/17 06:59:03;;;;;;;2.00;1.00;;;10.50;75.50;;;;;;4995399;28;20042;-68
2023/03/17 07:01:29;;;;;;;5.17;1.20;;;10.60;76.20;;;;;;4993448;28;20030;-69
2023/03/17 07:03:55;;;;;;;4.90;1.33;;;10.70;73.60;;;;;;4995760;28;20612;-68
2023/03/17 07:06:22;;;;;;;5.53;1.73;;;10.80;72.10;;;;;;4997195;28;20057;-67
2023/03/17 07:08:48;;;;;;;2.65;1.20;;;11.00;72.70;;;;;;4999850;28;20034;-68
2023/03/17 07:11:14;;;;;;;4.30;1.67;;;11.60;71.40;;;;;;4996165;28;20084;-67
2023/03/17 07:13:40;;;;;;;3.60;1.20;;;12.70;68.40;;;;;;4995894;28;20026;-70
2023/03/17 07:16:06;;;;;;;3.85;1.25;;;14.00;63.80;;;;;;4993014;28;20042;-69
2023/03/17 07:18:32;;;;;;;3.50;1.33;;;14.60;63.20;;;;;;4990073;28;20052;-72
2023/03/17 07:21:00;;;;;;;6.95;1.65;;;14.60;61.80;;;;;;4986392;28;20292;-73
2023/03/17 07:23:27;;;;;;;2.25;1.20;;;14.60;59.40;;;;;;4994528;28;20547;-70
2023/03/17 07:25:53;;;;;;;2.13;0.98;;;14.80;58.20;;;;;;4995518;28;20030;-72
2023/03/17 07:28:20;;;;;;;5.80;1.73;;;15.40;57.20;;;;;;4990376;28;20540;-70
2023/03/17 07:30:48;;;;;;;6.10;1.27;;;15.50;57.00;;;;;;4986227;28;20113;-70
2023/03/17 07:33:16;;;;;;;6.65;1.50;;;15.50;57.50;;;;;;4992036;28;20038;-72
2023/03/17 07:35:42;;;;;;;4.55;1.17;;;16.50;56.60;;;;;;4989443;28;20034;-71
2023/03/17 07:38:08;;;;;;;9.65;2.42;;;16.40;54.50;;;;;;4986452;28;20035;-68
2023/03/17 07:40:34;;;;;;;2.20;1.00;;;17.60;54.20;;;;;;4994398;28;20042;-69
2023/03/17 07:43:00;;;;;;;1.90;1.20;;;17.80;52.70;;;;;;4994281;28;20049;-69
2023/03/17 07:45:26;;;;;;;4.15;1.10;;;17.20;50.80;;;;;;4994279;28;20842;-70
2023/03/17 07:47:52;;;;;;;4.07;1.30;;;16.80;52.20;;;;;;4996655;28;20117;-70
2023/03/17 07:50:19;;;;;;;2.63;1.17;;;16.50;53.00;;;;;;4996257;28;20789;-70
2023/03/17 07:52:45;;;;;;;2.35;1.23;;;16.80;52.30;;;;;;4995696;28;20464;-70
2023/03/17 07:55:11;;;;;;;3.30;1.35;;;17.80;50.20;;;;;;4992202;28;20697;-69
2023/03/17 07:57:38;;;;;;;3.22;1.40;;;17.30;50.30;;;;;;4990177;28;20482;-70
2023/03/17 08:00:08;;;;;;;8.65;1.50;;;16.70;50.60;;;;;;4985452;28;20038;-69
2023/03/17 08:02:35;;;;;;;3.95;1.10;;;17.10;51.60;;;;;;4990411;28;20026;-69
2023/03/17 08:05:02;;;;;;;4.22;0.93;;;18.50;49.90;;;;;;4994591;28;20166;-72
2023/03/17 08:07:29;;;;;;;4.30;1.05;;;18.10;49.00;;;;;;4985735;28;20030;-74
2023/03/17 08:09:56;;;;;;;3.60;1.70;;;18.30;47.50;;;;;;4986532;28;20038;-73
2023/03/17 08:12:22;;;;;;;2.95;1.40;;;19.00;46.10;;;;;;4987630;28;20034;-70
2023/03/17 08:14:48;;;;;;;3.72;1.10;;;19.40;46.60;;;;;;4989006;28;20073;-77
2023/03/17 08:17:14;;;;;;;3.37;1.27;;;19.70;46.90;;;;;;4991037;28;20478;-71
2023/03/17 08:19:40;;;;;;;3.60;1.20;;;20.80;46.00;;;;;;4990985;28;20042;-71
2023/03/17 08:22:05;;;;;;;1.98;1.02;;;21.20;43.80;;;;;;4992333;28;20088;-74
2023/03/17 08:24:31;;;;;;;2.92;1.27;;;21.90;42.50;;;;;;4990867;28;20503;-76
2023/03/17 08:26:57;;;;;;;2.95;1.20;;;21.00;41.30;;;;;;4991038;28;20434;-78
2023/03/17 08:29:23;;;;;;;4.82;1.23;;;20.50;41.80;;;;;;4988956;28;20725;-72
2023/03/17 08:31:49;;;;;;;2.17;1.33;;;22.30;42.10;;;;;;4990726;28;20036;-72
2023/03/17 08:34:15;;;;;;;3.73;1.40;;;22.70;40.70;;;;;;4990340;28;20030;-75
2023/03/17 08:36:41;;;;;;;2.78;1.15;;;22.60;40.70;;;;;;4989889;28;20038;-74
2023/03/17 08:39:08;;;;;;;2.40;0.98;;;22.20;39.20;;;;;;4990714;28;20045;-74
2023/03/17 08:41:33;;;;;;;1.15;0.77;;;22.20;38.50;;;;;;4991036;28;20637;-77
2023/03/17 08:43:59;;;;;;;6.33;1.20;;;21.40;39.20;;;;;;4986788;28;20117;-73
2023/03/17 08:46:28;;;;;;;4.37;1.10;;;22.40;39.70;;;;;;4989110;28;20029;-76
2023/03/17 08:48:55;;;;;;;2.08;0.88;;;21.50;39.10;;;;;;4990011;28;20093;-73
2023/03/17 08:51:23;;;;;;;2.85;1.00;;;19.80;40.30;;;;;;4990518;28;20061;-71
2023/03/17 08:53:49;;;;;;;4.95;1.00;;;19.40;40.40;;;;;;4988887;28;20034;-71
2023/03/17 08:56:15;;;;;;;1.48;0.90;;;19.00;41.10;;;;;;4987933;28;20040;-72
2023/03/17 08:58:41;;;;;;;;;;;19.20;42.60;;;;;;4988661;28;20027;-72
2023/03/17 09:01:08;;;;;;;2.58;1.10;;;19.10;41.40;;;;;;4986583;28;19968;-73
2023/03/17 09:03:33;;;;;;;4.75;0.90;;;18.90;42.20;;;;;;4989280;28;20077;-73
2023/03/17 09:05:59;;;;;;;2.63;1.20;;;20.10;40.70;;;;;;4989522;28;20061;-75
2023/03/17 09:08:26;;;;;;;3.80;0.70;;;19.10;40.50;;;;;;4988412;28;20281;-76
2023/03/17 09:10:53;;;;;;;1.38;0.80;;;19.20;40.50;;;;;;4990857;28;20030;-76
2023/03/17 09:13:19;;;;;;;;;;;18.90;41.60;;;;;;5021056;28;20061;-74
2023/03/17 09:15:45;;;;;;;1.58;0.80;;;19.60;41.90;;;;;;4987759;28;19961;-71
2023/03/17 09:18:11;;;;;;;3.70;1.73;;;19.80;40.20;;;;;;4989295;28;20060;-74
2023/03/17 09:20:36;;;;;;;4.72;1.67;;;18.80;39.40;;;;;;4988201;28;20114;-72
2023/03/17 09:23:07;;;;;;;4.63;1.00;;;18.90;40.50;;;;;;4990072;28;20038;-77
2023/03/17 09:25:34;;;;;;;4.70;1.00;;;20.10;40.80;;;;;;4988629;28;20780;-74
2023/03/17 09:28:00;;;;;;;3.28;1.23;;;21.70;37.90;;;;;;4989078;28;20027;-71
2023/03/17 09:30:26;;;;;;;4.75;1.00;;;22.00;39.50;;;;;;4986530;28;20038;-71
2023/03/17 09:32:51;;;;;;;2.37;1.07;;;21.60;39.10;;;;;;4988597;28;20046;-71
2023/03/17 09:35:18;;;;;;;4.10;1.30;;;21.00;38.40;;;;;;4987539;28;20121;-73
2023/03/17 09:37:43;;;;;;;3.25;0.70;;;20.30;38.70;;;;;;4987292;28;20546;-73
2023/03/17 09:40:15;;;;;;;9.38;1.27;;;20.20;39.70;;;;;;4989770;28;20050;-76
2023/03/17 09:42:53;;;;;;;1.65;0.88;;;19.00;39.80;;;;;;4988205;28;20040;-71
2023/03/17 09:45:36;;;;;;;1.77;1.08;;;18.80;41.00;;;;;;4987977;28;20041;-74
2023/03/17 09:48:16;;;;;;;2.25;1.30;;;18.70;42.60;;;;;;4987622;28;20080;-71
2023/03/17 09:51:01;;;;;;;4.20;1.05;;;18.30;41.30;;;;;;4985818;28;20038;-72
2023/03/17 09:53:33;;;;;;;2.78;0.98;;;18.30;41.60;;;;;;4985158;28;20459;-73
2023/03/17 09:56:04;;;;;;;4.97;1.00;;;18.50;41.50;;;;;;4986183;28;20065;-70
2023/03/17 09:58:32;;;;;;;1.95;0.90;;;18.60;40.60;;;;;;4986249;28;20041;-69
2023/03/17 10:01:00;;;;;;;2.58;1.13;;;18.80;41.40;;;;;;4987824;28;20038;-70
2023/03/17 10:03:26;;;;;;;5.35;1.00;;;18.40;43.40;;;;;;4986767;28;20053;-70
2023/03/17 10:05:52;;;;;;;2.30;1.33;;;17.80;43.00;;;;;;4985650;28;20057;-72
2023/03/17 10:08:22;;;;;;;1.63;0.90;;;18.30;44.30;;;;;;4986814;28;20053;-72
2023/03/17 10:10:56;;;;;;;2.08;1.10;;;18.30;43.00;;;;;;4987217;28;20022;-72
2023/03/17 10:13:56;;;;;;;1.85;1.00;;;18.50;42.90;;;;;;4988061;28;20604;-71
2023/03/17 10:16:27;;;;;;;4.65;1.13;;;18.70;44.90;;;;;;4987354;28;20141;-72
2023/03/17 10:18:56;;;;;;;3.72;1.30;;;18.40;43.80;;;;;;5017444;28;20888;-70
2023/03/17 10:21:26;;;;;;;16.17;1.30;;;18.50;42.10;;;;;;4985707;28;20592;-73
2023/03/17 10:23:53;;;;;;;5.18;1.05;;;18.30;44.10;;;;;;4986081;28;20473;-71
2023/03/17 10:26:41;;;;;;;1.50;1.05;;;18.30;45.30;;;;;;4985312;28;20115;-74
2023/03/17 10:29:14;;;;;;;4.65;0.75;;;18.50;45.50;;;;;;4984786;28;20030;-71
2023/03/17 10:31:40;;;;;;;2.05;0.80;;;17.90;43.50;;;;;;4982945;28;20101;-73
2023/03/17 10:34:20;;;;;;;1.83;0.90;;;17.80;44.50;;;;;;4985192;28;20690;-72
2023/03/17 10:36:59;;;;;;;2.72;1.10;;;18.20;49.10;;;;;;4984568;28;20093;-73
2023/03/17 10:39:26;;;;;;;7.50;1.33;;;18.10;45.00;;;;;;4986058;28;20046;-69
2023/03/17 10:42:07;;;;;;;1.30;0.80;;;17.50;44.80;;;;;;4986969;28;20023;-72
2023/03/17 10:44:49;;;;;;;5.75;1.10;;;17.60;45.80;;;;;;4987231;28;20038;-74
2023/03/17 10:47:33;;;;;;;1.90;0.82;;;17.70;45.30;;;;;;4986480;28;20037;-72
2023/03/17 10:50:15;;;;;;;5.85;1.38;;;17.80;47.30;;;;;;4984510;28;20030;-70
2023/03/17 10:52:41;;;;;;;4.97;1.25;;;17.70;46.30;;;;;;4986348;28;20407;-71
2023/03/17 10:55:12;;;;;;;2.92;1.20;;;17.50;46.90;;;;;;4984398;28;20026;-70
2023/03/17 10:57:39;;;;;;;5.30;1.00;;;17.40;46.60;;;;;;4987201;28;20041;-73
2023/03/17 11:00:18;;;;;;;2.83;1.35;;;17.40;46.10;;;;;;4986486;28;20062;-69
2023/03/17 11:02:56;;;;;;;2.95;1.15;;;17.50;47.90;;;;;;4984666;28;20514;-74
2023/03/17 11:05:26;;;;;;;4.07;0.90;;;17.80;49.30;;;;;;4983957;28;20034;-73
2023/03/17 11:08:06;;;;;;;2.78;1.10;;;17.60;48.50;;;;;;4983401;28;20113;-72
2023/03/17 11:10:38;;;;;;;5.70;1.30;;;17.40;47.40;;;;;;4986047;28;20038;-69
2023/03/17 11:13:04;;;;;;;2.83;1.30;;;17.50;47.60;;;;;;4984116;28;20049;-69
2023/03/17 11:15:42;;;;;;;9.07;1.20;;;17.70;48.20;;;;;;4985357;28;20474;-70
2023/03/17 11:18:24;;;;;;;7.90;1.40;;;17.40;47.90;;;;;;4985011;28;20038;-73
2023/03/17 11:21:00;;;;;;;2.72;0.80;;;17.40;49.00;;;;;;4985035;28;20037;-72
2023/03/17 11:23:45;;;;;;;3.03;0.82;;;17.70;48.40;;;;;;4985247;28;20511;-73
2023/03/17 11:26:41;;;;;;;1.77;0.90;;;17.50;47.50;;;;;;4985952;28;20518;-74
2023/03/17 11:29:12;;;;;;;4.97;1.42;;;17.60;49.00;;;;;;4986175;28;20034;-74
2023/03/17 11:31:48;;;;;;;4.25;1.08;;;17.40;47.50;;;;;;4985687;28;20038;-74
2023/03/17 11:34:29;;;;;;;4.28;0.88;;;17.40;49.70;;;;;;4984855;28;20026;-74
2023/03/17 11:37:05;;;;;;;3.67;1.02;;;17.50;47.70;;;;;;4985463;28;20088;-71
2023/03/17 11:40:13;;;;;;;3.53;1.07;;;17.30;48.10;;;;;;4983479;28;20510;-72
2023/03/17 11:43:04;;;;;;;3.65;0.90;;;17.60;49.00;;;;;;5018698;28;20041;-69
2023/03/17 11:45:39;;;;;;;1.58;0.90;;;17.70;48.30;;;;;;4987775;28;20105;-70
2023/03/17 11:48:49;;;;;;;2.83;1.27;;;17.50;48.50;;;;;;4986555;28;20047;-72
2023/03/17 11:51:26;;;;;;;8.18;1.35;;;17.60;48.10;;;;;;4988830;28;20042;-68
2023/03/17 11:54:09;;;;;;;1.88;1.05;;;17.60;48.60;;;;;;4991497;28;20848;-71
2023/03/17 11:56:44;;;;;;;3.40;1.25;;;17.60;49.30;;;;;;4990681;28;20075;-71
2023/03/17 11:59:38;;;;;;;1.98;0.98;;;17.70;49.60;;;;;;4990044;28;20589;-68
2023/03/17 12:02:16;;;;;;;2.78;1.38;;;17.70;49.30;;;;;;4981174;28;20034;-71
2023/03/17 12:04:59;;;;;;;7.18;1.45;;;17.60;48.90;;;;;;4992722;28;20065;-72
2023/03/17 12:07:36;;;;;;;2.63;1.38;;;17.70;49.70;;;;;;4987837;28;20026;-71
2023/03/17 12:10:14;;;;;;;10.17;1.10;;;17.70;50.10;;;;;;4990822;28;20125;-68
2023/03/17 12:12:47;;;;;;;3.50;1.20;;;17.70;49.60;;;;;;4990381;28;20030;-69
2023/03/17 12:15:28;;;;;;;2.78;1.25;;;17.60;50.00;;;;;;4991816;28;20030;-71
2023/03/17 12:18:00;;;;;;;4.03;1.48;;;17.50;50.50;;;;;;4988784;28;20435;-71
2023/03/17 12:20:38;;;;;;;3.38;1.48;;;17.50;49.50;;;;;;4989977;28;20246;-69
2023/03/17 12:23:38;;;;;;;3.70;1.45;;;17.60;49.90;;;;;;4986157;28;20033;-69
2023/03/17 12:26:11;;;;;;;8.68;2.25;;;17.70;50.90;;;;;;4987371;28;20050;-68
2023/03/17 12:28:58;;;;;;;2.60;1.23;;;17.50;50.40;;;;;;4987946;28;20034;-72
2023/03/17 12:31:30;;;;;;;5.38;1.48;;;17.70;51.60;;;;;;4987471;28;20670;-74
2023/03/17 12:34:14;;;;;;;2.53;1.70;;;18.00;52.20;;;;;;4986814;28;20045;-76
2023/03/17 12:36:41;;;;;;;5.70;1.75;;;18.10;51.40;;;;;;4987284;28;20138;-72
2023/03/17 12:39:09;;;;;;;7.35;1.63;;;18.10;50.30;;;;;;4989752;28;20042;-72
2023/03/17 12:42:12;;;;;;;7.38;1.73;;;18.00;50.70;;;;;;4985942;28;20542;-71
2023/03/17 12:44:57;;;;;;;9.70;1.65;;;17.90;51.10;;;;;;4989716;28;20042;-73
2023/03/17 12:47:58;;;;;;;7.30;2.10;;;17.40;50.90;;;;;;4988215;28;20384;-72
2023/03/17 12:50:33;;;;;;;6.70;1.75;;;17.30;51.90;;;;;;4989087;28;20511;-72
2023/03/17 12:53:14;;;;;;;4.32;1.48;;;17.30;52.00;;;;;;4989121;28;20510;-75
2023/03/17 12:55:44;;;;;;;6.88;2.20;;;17.50;51.90;;;;;;4988002;28;20026;-76
2023/03/17 12:58:29;;;;;;;2.95;1.50;;;17.70;53.70;;;;;;4988478;28;20026;-73
2023/03/17 13:00:58;;;;;;;3.47;1.63;;;17.70;52.60;;;;;;4988150;28;20034;-77
2023/03/17 13:03:37;;;;;;;5.07;1.75;;;17.60;52.70;;;;;;4987771;28;20026;-79